Time;durP1;ratioP1;P1;durP2;ratioP2;P2;SDS_P1;SDS_P2;PMS_P1;PMS_P2;Temp;Humidity;BMP_temperature;BMP_pressure;BME280_temperature;BME280_humidity;BME280_pressure;Samples;Min_cycle;Max_cycle;Signal;HPM_P1;HPM_P2
2021/09/13 00:01:10;;;;;;;14.75;10.75;;;;;;;12.99;100.00;101428.94;4950090;28;20073;-86
2021/09/13 00:03:36;;;;;;;11.40;9.65;;;;;;;12.97;100.00;101428.25;4962731;28;20256;-85
2021/09/13 00:06:02;;;;;;;13.10;9.75;;;;;;;12.98;100.00;101429.94;4980981;28;20039;-87
2021/09/13 00:08:27;;;;;;;14.60;11.15;;;;;;;12.97;100.00;101423.69;4959440;28;20093;-87
2021/09/13 00:10:52;;;;;;;16.58;9.88;;;;;;;12.92;100.00;101425.19;4964679;28;20050;-87
2021/09/13 00:13:19;;;;;;;16.52;10.40;;;;;;;12.85;100.00;101425.84;4962132;28;20402;-86
2021/09/13 00:15:44;;;;;;;14.05;10.05;;;;;;;12.80;100.00;101421.97;4954641;28;20078;-87
2021/09/13 00:18:09;;;;;;;11.10;9.05;;;;;;;12.80;100.00;101422.81;4962615;28;20380;-87
2021/09/13 00:20:35;;;;;;;12.82;10.02;;;;;;;12.79;100.00;101414.91;4995805;28;20054;-87
2021/09/13 00:23:01;;;;;;;14.60;9.70;;;;;;;12.74;100.00;101426.16;4979547;28;20046;-86
2021/09/13 00:25:26;;;;;;;13.43;9.32;;;;;;;12.71;100.00;101422.94;4977015;28;20038;-86
2021/09/13 00:27:53;;;;;;;12.27;9.43;;;;;;;12.64;100.00;101422.75;4979712;28;20693;-86
2021/09/13 00:30:19;;;;;;;12.27;9.27;;;;;;;12.60;100.00;101421.38;4961493;28;20096;-86
2021/09/13 00:32:44;;;;;;;14.23;10.00;;;;;;;12.62;100.00;101414.00;4978024;28;20075;-87
2021/09/13 00:35:10;;;;;;;11.35;9.40;;;;;;;12.63;100.00;101423.78;4981682;28;20034;-88
2021/09/13 00:37:35;;;;;;;13.35;9.52;;;;;;;12.57;100.00;101421.69;4989179;28;20161;-87
2021/09/13 00:40:03;;;;;;;13.48;9.50;;;;;;;12.54;100.00;101416.66;4980233;28;20696;-88
2021/09/13 00:42:29;;;;;;;10.93;9.52;;;;;;;12.56;100.00;101422.72;4980932;28;20046;-86
2021/09/13 00:44:55;;;;;;;11.95;9.52;;;;;;;12.50;100.00;101416.13;4981184;28;20049;-87
2021/09/13 00:47:20;;;;;;;13.68;8.98;;;;;;;12.50;100.00;101423.38;4981331;28;20066;-87
2021/09/13 00:49:47;;;;;;;11.25;9.00;;;;;;;12.47;100.00;101424.53;5020710;28;20559;-86
2021/09/13 00:52:14;;;;;;;11.38;8.82;;;;;;;12.42;100.00;101416.09;5002142;28;20060;-88
2021/09/13 00:54:39;;;;;;;13.23;9.45;;;;;;;12.41;100.00;101417.09;4978112;28;20037;-87
2021/09/13 00:57:05;;;;;;;12.98;9.55;;;;;;;12.37;100.00;101416.59;4962519;28;20043;-87
2021/09/13 00:59:31;;;;;;;11.98;9.20;;;;;;;12.28;100.00;101414.84;4996613;28;20066;-87
2021/09/13 01:01:56;;;;;;;14.27;9.95;;;;;;;12.31;100.00;101411.00;4960385;28;20089;-88
2021/09/13 01:04:21;;;;;;;14.13;10.00;;;;;;;12.29;100.00;101413.84;4965786;28;20099;-86
2021/09/13 01:06:48;;;;;;;12.40;9.25;;;;;;;12.25;100.00;101411.63;4935388;28;20169;-87
2021/09/13 01:09:13;;;;;;;12.45;9.13;;;;;;;12.18;100.00;101411.44;4981993;28;20042;-86
2021/09/13 01:11:39;;;;;;;14.00;9.27;;;;;;;12.16;100.00;101403.50;4996676;28;20482;-87
2021/09/13 01:14:05;;;;;;;13.10;9.50;;;;;;;12.16;100.00;101408.88;4978113;28;20042;-87
2021/09/13 01:16:30;;;;;;;12.90;9.77;;;;;;;12.12;100.00;101404.84;4988273;28;20203;-87
2021/09/13 01:18:58;;;;;;;12.32;10.02;;;;;;;12.06;100.00;101402.78;4979740;28;20082;-87
2021/09/13 01:21:27;;;;;;;13.73;9.90;;;;;;;12.08;100.00;101402.63;4977370;28;20050;-87
2021/09/13 01:23:53;;;;;;;12.00;9.52;;;;;;;12.08;100.00;101402.63;4943504;28;20118;-86
2021/09/13 01:26:19;;;;;;;13.27;9.00;;;;;;;11.99;100.00;101411.66;4993964;28;20151;-87
2021/09/13 01:28:47;;;;;;;14.20;10.75;;;;;;;11.95;100.00;101419.19;4978435;28;20495;-88
2021/09/13 01:31:13;;;;;;;14.02;10.32;;;;;;;11.95;100.00;101408.44;4947536;28;20052;-87
2021/09/13 01:33:38;;;;;;;12.70;10.60;;;;;;;11.94;100.00;101406.75;4962880;28;20406;-86
2021/09/13 01:36:04;;;;;;;14.63;10.60;;;;;;;11.89;100.00;101404.53;4965856;28;20426;-86
2021/09/13 01:38:31;;;;;;;13.73;10.55;;;;;;;11.84;100.00;101404.13;4978530;28;20383;-86
2021/09/13 01:40:57;;;;;;;14.88;9.68;;;;;;;11.86;100.00;101407.53;4964343;28;20132;-86
2021/09/13 01:43:22;;;;;;;11.68;9.40;;;;;;;11.84;100.00;101406.81;4964728;28;20140;-86
2021/09/13 01:45:47;;;;;;;14.07;9.50;;;;;;;11.81;100.00;101404.44;4973376;28;20092;-87
2021/09/13 01:48:14;;;;;;;14.75;10.25;;;;;;;11.82;100.00;101408.81;4996463;28;20034;-87
2021/09/13 01:50:40;;;;;;;14.00;9.93;;;;;;;11.79;100.00;101406.44;4962128;28;20103;-85
2021/09/13 01:53:06;;;;;;;11.60;9.50;;;;;;;11.75;100.00;101411.28;4978749;28;20224;-86
2021/09/13 01:55:31;;;;;;;14.00;10.32;;;;;;;11.74;100.00;101414.16;4960407;28;20035;-86
2021/09/13 01:57:56;;;;;;;14.23;10.02;;;;;;;11.73;100.00;101412.44;4938537;28;20051;-87
2021/09/13 02:00:22;;;;;;;15.55;10.43;;;;;;;11.68;100.00;101410.25;4949131;28;20057;-88
2021/09/13 02:02:47;;;;;;;12.40;9.70;;;;;;;11.70;100.00;101407.38;4948853;28;20481;-87
2021/09/13 02:05:13;;;;;;;14.07;10.55;;;;;;;11.68;100.00;101398.63;4978884;28;20152;-87
2021/09/13 02:07:38;;;;;;;14.82;10.25;;;;;;;11.65;100.00;101398.94;4950592;28;20575;-87
2021/09/13 02:10:05;;;;;;;14.07;10.50;;;;;;;11.64;100.00;101405.31;4965615;28;20042;-87
2021/09/13 02:12:30;;;;;;;11.75;9.48;;;;;;;11.58;100.00;101408.63;4963283;28;20129;-86
2021/09/13 02:14:56;;;;;;;12.07;10.13;;;;;;;11.53;100.00;101409.94;4986470;28;20121;-86
2021/09/13 02:17:21;;;;;;;13.30;9.90;;;;;;;11.57;100.00;101407.81;4972935;28;20133;-88
2021/09/13 02:19:48;;;;;;;12.02;9.90;;;;;;;11.54;100.00;101408.13;4986555;28;20049;-90
2021/09/13 02:22:14;;;;;;;12.90;9.68;;;;;;;11.55;100.00;101403.59;4964841;28;20038;-88
2021/09/13 02:24:40;;;;;;;11.55;8.68;;;;;;;11.51;100.00;101408.44;4973769;28;20319;-87
2021/09/13 02:27:06;;;;;;;12.57;9.82;;;;;;;11.50;100.00;101402.19;4966077;28;20034;-88
2021/09/13 02:29:32;;;;;;;12.25;9.52;;;;;;;11.47;100.00;101396.28;4974011;28;20047;-87
2021/09/13 02:31:57;;;;;;;12.60;9.95;;;;;;;11.44;100.00;101404.66;4980470;28;20035;-87
2021/09/13 02:34:23;;;;;;;11.60;9.13;;;;;;;11.43;100.00;101400.28;4979672;28;20491;-87
2021/09/13 02:36:48;;;;;;;11.23;9.57;;;;;;;11.41;100.00;101402.28;4984206;28;20038;-88
2021/09/13 02:39:13;;;;;;;11.95;9.95;;;;;;;11.35;100.00;101406.44;4992858;28;20411;-88
2021/09/13 02:41:39;;;;;;;14.13;10.77;;;;;;;11.35;100.00;101403.75;4980912;28;20054;-87
2021/09/13 02:44:05;;;;;;;11.30;8.95;;;;;;;11.30;100.00;101408.72;4973462;28;20050;-87
2021/09/13 02:46:31;;;;;;;10.68;9.07;;;;;;;11.29;100.00;101399.00;4944815;28;20493;-87
2021/09/13 02:48:56;;;;;;;11.80;9.55;;;;;;;11.29;100.00;101412.44;4943828;28;20545;-87
2021/09/13 02:51:23;;;;;;;13.20;9.57;;;;;;;11.27;100.00;101411.72;5010679;28;20052;-87
2021/09/13 02:53:48;;;;;;;11.00;9.15;;;;;;;11.22;100.00;101408.66;4965794;28;20046;-87
2021/09/13 02:56:14;;;;;;;12.18;9.40;;;;;;;11.20;100.00;101410.66;4958626;28;20690;-86
2021/09/13 02:58:40;;;;;;;12.82;9.90;;;;;;;11.18;100.00;101408.13;4951162;28;20038;-87
2021/09/13 03:01:05;;;;;;;12.20;9.70;;;;;;;11.18;100.00;101405.44;4965397;28;20678;-88
2021/09/13 03:03:31;;;;;;;13.05;10.00;;;;;;;11.19;100.00;101414.31;5037659;28;20060;-89
2021/09/13 03:05:56;;;;;;;11.27;9.27;;;;;;;11.18;100.00;101408.13;4971229;28;20060;-88
2021/09/13 03:08:22;;;;;;;12.27;9.40;;;;;;;11.14;100.00;101408.59;4982831;28;20129;-87
2021/09/13 03:10:47;;;;;;;12.32;9.82;;;;;;;11.13;100.00;101409.56;4972672;28;20125;-87
2021/09/13 03:13:14;;;;;;;14.23;9.80;;;;;;;11.10;100.00;101407.19;4963120;28;20121;-87
2021/09/13 03:15:39;;;;;;;13.65;10.77;;;;;;;11.11;100.00;101415.13;4980770;28;20049;-86
2021/09/13 03:18:05;;;;;;;13.25;9.90;;;;;;;11.11;100.00;101403.53;4948984;28;20130;-86
2021/09/13 03:20:31;;;;;;;14.18;9.85;;;;;;;11.07;100.00;101403.81;4963664;28;20106;-87
2021/09/13 03:22:57;;;;;;;12.20;9.82;;;;;;;11.04;100.00;101406.78;4947227;28;20042;-86
2021/09/13 03:25:24;;;;;;;12.75;9.82;;;;;;;10.99;100.00;101402.88;4961558;28;20145;-86
2021/09/13 03:27:50;;;;;;;12.13;9.38;;;;;;;10.97;100.00;101404.91;4963131;28;20305;-88
2021/09/13 03:30:16;;;;;;;11.88;8.63;;;;;;;10.97;100.00;101402.22;5046573;28;20273;-85
2021/09/13 03:32:41;;;;;;;11.88;9.45;;;;;;;11.00;100.00;101405.44;4961935;28;20046;-86
2021/09/13 03:35:07;;;;;;;11.90;9.48;;;;;;;10.99;100.00;101398.38;5045221;28;20052;-86
2021/09/13 03:37:34;;;;;;;12.02;9.57;;;;;;;10.97;100.00;101400.38;4944990;28;20482;-86
2021/09/13 03:39:59;;;;;;;12.25;9.05;;;;;;;10.97;100.00;101405.72;4963731;28;20683;-86
2021/09/13 03:42:26;;;;;;;12.18;9.65;;;;;;;11.02;100.00;101392.69;4962793;28;20045;-86
2021/09/13 03:44:54;;;;;;;12.05;8.65;;;;;;;11.05;100.00;101397.75;4964871;28;20558;-86
2021/09/13 03:47:19;;;;;;;12.23;9.70;;;;;;;11.07;100.00;101389.53;4958180;28;20054;-86
2021/09/13 03:49:45;;;;;;;12.50;9.70;;;;;;;11.06;100.00;101387.88;5032787;28;20297;-86
2021/09/13 03:52:10;;;;;;;14.80;10.38;;;;;;;11.03;100.00;101388.16;5044884;28;21493;-86
2021/09/13 03:54:36;;;;;;;13.25;9.60;;;;;;;11.10;100.00;101377.66;4979437;28;20042;-86
2021/09/13 03:57:02;;;;;;;12.85;9.70;;;;;;;11.10;100.00;101383.03;5065150;28;20042;-87
2021/09/13 03:59:28;;;;;;;14.15;10.48;;;;;;;11.06;100.00;101386.00;4967509;28;20049;-86
2021/09/13 04:01:53;;;;;;;12.63;9.88;;;;;;;11.09;100.00;101382.19;5048251;28;20034;-87
2021/09/13 04:04:23;;;;;;;14.77;9.52;;;;;;;11.06;100.00;101386.00;4960294;28;20048;-87
2021/09/13 04:06:52;;;;;;;13.75;10.75;;;;;;;11.07;100.00;101376.94;4963778;28;20418;-85
2021/09/13 04:12:00;;;;;;;13.57;10.30;;;;;;;11.03;100.00;101377.44;4965863;28;20177;-86
2021/09/13 04:14:28;;;;;;;16.63;10.82;;;;;;;11.00;100.00;101372.34;4944615;28;20092;-85
2021/09/13 04:16:54;;;;;;;13.60;11.02;;;;;;;11.00;100.00;101378.56;5036946;28;20506;-86
2021/09/13 04:19:20;;;;;;;13.75;10.13;;;;;;;10.97;100.00;101376.19;4955831;28;20041;-84
2021/09/13 04:21:46;;;;;;;15.45;10.93;;;;;;;11.00;100.00;101372.34;4964427;28;20426;-86
2021/09/13 04:24:12;;;;;;;16.23;11.32;;;;;;;11.00;100.00;101378.56;4941586;28;20051;-85
2021/09/13 04:26:38;;;;;;;12.95;10.32;;;;;;;11.02;100.00;101381.13;5062869;28;20043;-86
2021/09/13 04:29:04;;;;;;;13.70;10.30;;;;;;;10.99;100.00;101382.25;4948458;28;20086;-86
2021/09/13 04:31:30;;;;;;;12.98;10.38;;;;;;;10.97;100.00;101388.78;5069250;28;20070;-86
2021/09/13 04:33:55;;;;;;;14.20;10.18;;;;;;;10.96;100.00;101389.75;4961884;28;20058;-86
2021/09/13 04:36:21;;;;;;;16.08;10.85;;;;;;;11.01;100.00;101392.84;4947326;28;20044;-87
2021/09/13 04:38:47;;;;;;;15.13;10.00;;;;;;;11.04;100.00;101395.22;5025198;28;20200;-86
2021/09/13 04:41:13;;;;;;;14.20;10.10;;;;;;;11.02;100.00;101398.06;4964810;28;20639;-86
2021/09/13 04:43:38;;;;;;;17.23;10.63;;;;;;;11.00;100.00;101396.53;4940400;28;20047;-87
2021/09/13 04:46:04;;;;;;;13.38;10.20;;;;;;;11.04;100.00;101401.44;4948907;28;20046;-86
2021/09/13 04:48:29;;;;;;;12.93;9.80;;;;;;;10.98;100.00;101403.88;4963976;28;20054;-86
2021/09/13 04:50:55;;;;;;;15.40;9.75;;;;;;;10.94;100.00;101389.09;4940799;28;20050;-86
2021/09/13 04:53:21;;;;;;;14.57;9.50;;;;;;;11.01;100.00;101400.91;4956899;28;20034;-87
2021/09/13 04:55:47;;;;;;;13.48;10.27;;;;;;;10.98;100.00;101402.03;4971605;28;20405;-86
2021/09/13 04:58:12;;;;;;;15.02;11.05;;;;;;;10.95;100.00;101396.13;4984521;28;20034;-86
2021/09/13 05:00:38;;;;;;;12.68;9.70;;;;;;;10.96;100.00;101401.38;4958534;28;20051;-86
2021/09/13 05:03:03;;;;;;;15.98;10.35;;;;;;;10.98;100.00;101398.50;4967144;28;20038;-87
2021/09/13 05:05:29;;;;;;;15.13;10.55;;;;;;;10.93;100.00;101403.50;4981140;28;20058;-87
2021/09/13 05:07:54;;;;;;;15.77;10.07;;;;;;;10.96;100.00;101404.06;4966568;28;20054;-87
2021/09/13 05:10:19;;;;;;;13.10;9.77;;;;;;;10.94;100.00;101400.66;4962621;28;20136;-86
2021/09/13 05:12:45;;;;;;;11.63;9.70;;;;;;;10.94;100.00;101411.41;5035146;28;20062;-87
2021/09/13 05:15:11;;;;;;;14.65;9.30;;;;;;;10.89;100.00;101402.97;5024298;28;20137;-86
2021/09/13 05:17:36;;;;;;;16.35;10.60;;;;;;;10.86;100.00;101408.63;4958065;28;20485;-86
2021/09/13 05:20:02;;;;;;;15.07;10.57;;;;;;;10.92;100.00;101408.03;4948567;28;20271;-86
2021/09/13 05:22:28;;;;;;;15.32;10.27;;;;;;;10.94;100.00;101407.88;4973396;28;20078;-86
2021/09/13 05:24:53;;;;;;;14.25;10.38;;;;;;;10.95;100.00;101415.78;4965563;28;20050;-86
2021/09/13 05:27:18;;;;;;;16.13;10.57;;;;;;;10.90;100.00;101407.31;4962220;28;20043;-87
2021/09/13 05:29:44;;;;;;;16.58;11.00;;;;;;;10.91;100.00;101406.34;4955608;28;20055;-85
2021/09/13 05:32:09;;;;;;;16.42;11.15;;;;;;;10.88;100.00;101414.69;4972378;28;20675;-85
2021/09/13 05:34:36;;;;;;;16.23;12.02;;;;;;;10.88;100.00;101421.91;4955334;28;20046;-86
2021/09/13 05:37:01;;;;;;;15.82;11.85;;;;;;;10.83;100.00;101415.16;4961369;28;20041;-84
2021/09/13 05:39:27;;;;;;;17.50;12.80;;;;;;;10.89;100.00;101428.97;5029387;28;20464;-85
2021/09/13 05:41:52;;;;;;;18.02;13.05;;;;;;;10.92;100.00;101421.44;4962203;28;20034;-85
2021/09/13 05:44:18;;;;;;;19.45;12.77;;;;;;;10.93;100.00;101422.28;5062927;28;20227;-85
2021/09/13 05:46:44;;;;;;;19.80;12.27;;;;;;;10.89;100.00;101421.75;4971714;28;20046;-85
2021/09/13 05:49:10;;;;;;;18.02;13.40;;;;;;;10.95;100.00;101429.19;4962658;28;20495;-85
2021/09/13 05:51:51;;;;;;;17.00;12.32;;;;;;;10.98;100.00;101422.69;4960509;28;20145;-85
2021/09/13 05:54:22;;;;;;;18.35;12.82;;;;;;;10.95;100.00;101433.72;5049260;28;20228;-85
2021/09/13 05:56:50;;;;;;;19.25;12.82;;;;;;;10.98;100.00;101428.06;4961919;28;20042;-86
2021/09/13 05:59:16;;;;;;;18.02;12.65;;;;;;;11.01;100.00;101436.66;4975016;28;20047;-85
2021/09/13 06:01:42;;;;;;;18.92;13.88;;;;;;;11.05;100.00;101435.38;4934485;28;20054;-85
2021/09/13 06:04:07;;;;;;;21.10;13.55;;;;;;;11.03;100.00;101431.13;4952800;28;20046;-86
2021/09/13 06:06:33;;;;;;;20.25;13.93;;;;;;;11.05;100.00;101424.63;5045036;28;20186;-86
2021/09/13 06:08:58;;;;;;;24.48;13.90;;;;;;;11.09;100.00;101430.53;4969430;28;20505;-86
2021/09/13 06:11:27;;;;;;;20.15;12.80;;;;;;;11.16;100.00;101423.53;4945312;28;20039;-86
2021/09/13 06:13:53;;;;;;;18.02;13.18;;;;;;;11.21;100.00;101428.47;5043121;28;20106;-86
2021/09/13 06:16:19;;;;;;;19.60;13.40;;;;;;;11.24;100.00;101434.38;4952637;28;20398;-86
2021/09/13 06:18:44;;;;;;;17.58;12.98;;;;;;;11.33;100.00;101440.66;4966579;28;20279;-86
2021/09/13 06:21:10;;;;;;;17.40;12.82;;;;;;;11.40;100.00;101443.59;4968086;28;20583;-85
2021/09/13 06:23:35;;;;;;;17.63;13.10;;;;;;;11.45;100.00;101447.50;4981201;28;20057;-86
2021/09/13 06:26:01;;;;;;;16.52;13.05;;;;;;;11.51;100.00;101446.91;4964785;28;20482;-86
2021/09/13 06:28:26;;;;;;;18.55;13.75;;;;;;;11.61;100.00;101452.19;4961060;28;20562;-86
2021/09/13 06:30:51;;;;;;;18.17;14.02;;;;;;;11.70;100.00;101447.72;4977967;28;20394;-86
2021/09/13 06:33:17;;;;;;;20.33;15.18;;;;;;;11.79;100.00;101451.31;4957359;28;20038;-85
2021/09/13 06:35:43;;;;;;;21.73;13.98;;;;;;;11.85;100.00;101451.56;4976407;28;20096;-85
2021/09/13 06:38:08;;;;;;;21.00;14.80;;;;;;;11.96;100.00;101455.84;4968941;28;20513;-85
2021/09/13 06:40:35;;;;;;;19.50;14.85;;;;;;;12.05;100.00;101451.38;4944879;28;20050;-85
2021/09/13 06:43:01;;;;;;;18.35;14.57;;;;;;;12.14;100.00;101443.22;4962105;28;20054;-85
2021/09/13 06:45:27;;;;;;;18.35;14.38;;;;;;;12.27;100.00;101448.16;4961542;28;20038;-85
2021/09/13 06:47:58;;;;;;;21.20;15.18;;;;;;;12.37;100.00;101448.03;4980647;28;20042;-85
2021/09/13 06:50:27;;;;;;;18.73;13.48;;;;;;;12.42;100.00;101441.16;4964092;28;20049;-86
2021/09/13 06:53:49;;;;;;;21.85;15.20;;;;;;;12.57;100.00;101452.19;5006064;23;20051;-89
2021/09/13 06:56:21;;;;;;;21.08;15.05;;;;;;;12.67;100.00;101449.34;4954452;28;20066;-89
2021/09/13 07:01:39;;;;;;;21.98;14.43;;;;;;;12.85;100.00;101447.41;4918779;28;20041;-89
2021/09/13 07:04:29;;;;;;;18.38;13.90;;;;;;;12.98;100.00;101451.50;4959574;28;20039;-89
2021/09/13 07:07:45;;;;;;;17.65;13.73;;;;;;;13.05;100.00;101444.44;4850822;29;20408;-90
2021/09/13 07:10:16;;;;;;;16.55;12.45;;;;;;;13.12;100.00;101458.94;4851375;29;20049;-91
2021/09/13 07:12:55;;;;;;;18.52;15.15;;;;;;;13.15;100.00;101458.63;5100657;27;20416;-80
2021/09/13 07:15:21;;;;;;;20.92;14.52;;;;;;;13.19;100.00;101459.97;5069325;28;20032;-80
2021/09/13 07:17:46;;;;;;;18.58;13.05;;;;;;;13.23;100.00;101466.69;5057910;28;20071;-82
2021/09/13 07:20:13;;;;;;;20.27;14.48;;;;;;;13.35;100.00;101469.97;5076177;28;20060;-82
2021/09/13 07:22:39;;;;;;;17.48;12.60;;;;;;;13.47;100.00;101481.28;5076654;28;20076;-80
2021/09/13 07:25:05;;;;;;;19.00;12.57;;;;;;;13.56;100.00;101485.66;5081443;28;20044;-80
2021/09/13 07:27:30;;;;;;;19.50;12.65;;;;;;;13.62;100.00;101482.28;5038826;28;20503;-82
2021/09/13 07:29:59;;;;;;;17.33;12.95;;;;;;;13.67;100.00;101485.34;5059359;28;20092;-82
2021/09/13 07:32:25;;;;;;;16.65;12.43;;;;;;;13.68;100.00;101487.00;5064578;28;20683;-81
2021/09/13 07:34:50;;;;;;;18.48;12.20;;;;;;;13.72;100.00;101488.38;5072773;28;20161;-80
2021/09/13 07:37:16;;;;;;;18.90;13.07;;;;;;;13.80;100.00;101489.38;5077552;28;20052;-80
2021/09/13 07:39:41;;;;;;;18.02;12.90;;;;;;;13.91;100.00;101480.94;5077108;28;20052;-81
2021/09/13 07:42:08;;;;;;;18.92;12.93;;;;;;;13.94;100.00;101486.84;5047618;28;20036;-82
2021/09/13 07:44:33;;;;;;;17.40;12.68;;;;;;;14.04;100.00;101475.91;5056018;28;20029;-80
2021/09/13 07:46:58;;;;;;;15.82;13.20;;;;;;;14.10;100.00;101486.00;5043506;28;20522;-83
2021/09/13 07:49:24;;;;;;;17.27;11.52;;;;;;;14.18;100.00;101482.44;5056352;28;20043;-80
2021/09/13 07:51:49;;;;;;;15.95;11.98;;;;;;;14.25;100.00;101493.41;5059836;28;20127;-83
2021/09/13 07:54:15;;;;;;;16.40;11.50;;;;;;;14.33;100.00;101488.00;5044030;28;20553;-80
2021/09/13 07:56:41;;;;;;;19.65;11.73;;;;;;;14.39;100.00;101490.00;5073183;28;20040;-83
2021/09/13 07:59:07;;;;;;;17.20;11.05;;;;;;;14.50;100.00;101492.34;5057658;28;20303;-79
2021/09/13 08:01:33;;;;;;;19.75;11.02;;;;;;;14.64;100.00;101497.06;5075784;28;20036;-83
2021/09/13 08:03:59;;;;;;;12.65;8.48;;;;;;;14.66;100.00;101497.72;5074463;28;20076;-83
2021/09/13 08:06:24;;;;;;;19.10;10.40;;;;;;;14.72;100.00;101501.56;5073801;28;20036;-83
2021/09/13 08:08:50;;;;;;;15.70;9.15;;;;;;;14.86;100.00;101500.84;5078141;28;20515;-80
2021/09/13 08:11:16;;;;;;;14.27;8.77;;;;;;;15.02;100.00;101501.81;5056834;28;20061;-82
2021/09/13 08:13:42;;;;;;;12.85;8.70;;;;;;;15.10;100.00;101507.16;5079440;28;20119;-81
2021/09/13 08:16:09;;;;;;;13.77;7.63;;;;;;;15.09;100.00;101508.19;5060974;28;20495;-82
2021/09/13 08:18:35;;;;;;;14.40;7.03;;;;;;;15.22;100.00;101510.31;5076232;28;20561;-81
2021/09/13 08:21:00;;;;;;;10.55;6.97;;;;;;;15.33;100.00;101499.94;5041349;28;20032;-81
2021/09/13 08:23:25;;;;;;;13.80;7.25;;;;;;;15.44;99.90;101498.69;5048344;28;20063;-81
2021/09/13 08:25:51;;;;;;;10.07;6.75;;;;;;;15.60;100.00;101494.19;5047189;28;20600;-80
2021/09/13 08:28:20;;;;;;;12.27;6.50;;;;;;;15.67;99.81;101504.09;5061332;28;20051;-82
2021/09/13 08:30:49;;;;;;;10.55;6.53;;;;;;;15.79;98.44;101504.53;5062210;28;20162;-82
2021/09/13 08:33:14;;;;;;;10.98;5.78;;;;;;;15.76;97.37;101513.03;5049658;28;20496;-83
2021/09/13 08:35:40;;;;;;;8.52;6.25;;;;;;;15.82;98.38;101508.75;5015299;28;20140;-83
2021/09/13 08:38:05;;;;;;;10.18;6.68;;;;;;;15.82;96.72;101520.41;5029017;28;20045;-84
2021/09/13 08:40:31;;;;;;;10.35;6.47;;;;;;;15.86;97.06;101524.47;5032405;28;20049;-82
2021/09/13 08:42:58;;;;;;;13.63;7.80;;;;;;;15.92;97.47;101517.47;5021248;28;20659;-83
2021/09/13 08:45:40;;;;;;;12.05;6.45;;;;;;;15.97;99.27;101529.44;5029867;28;20041;-80
2021/09/13 08:53:09;;;;;;;9.35;5.80;;;;;;;16.17;96.58;101521.66;5034141;28;20056;-80
2021/09/13 08:55:34;;;;;;;8.48;4.75;;;;;;;16.24;96.32;101527.19;5015283;28;20156;-81
2021/09/13 08:58:00;;;;;;;8.43;4.53;;;;;;;16.29;97.47;101526.63;5013979;28;20580;-84
2021/09/13 09:00:26;;;;;;;6.72;4.28;;;;;;;16.27;95.62;101523.25;5033893;28;20052;-81
2021/09/13 09:02:54;;;;;;;7.10;3.45;;;;;;;16.23;95.93;101528.22;5016428;28;20052;-81
2021/09/13 09:05:20;;;;;;;9.93;3.70;;;;;;;16.30;95.83;101528.31;5018804;28;20559;-83
2021/09/13 09:07:55;;;;;;;8.57;4.07;;;;;;;16.50;97.14;101534.03;5011439;28;20053;-81
2021/09/13 09:10:23;;;;;;;8.70;4.63;;;;;;;16.60;94.95;101529.16;4999427;28;20131;-84
2021/09/13 09:13:00;;;;;;;9.27;4.18;;;;;;;16.76;95.60;101533.59;5035233;28;20114;-84
2021/09/13 09:15:27;;;;;;;8.38;4.50;;;;;;;16.80;94.01;101534.91;5040173;28;20057;-81
2021/09/13 09:17:59;;;;;;;6.05;3.42;;;;;;;16.82;93.65;101543.69;5043947;28;20373;-84
2021/09/13 09:20:26;;;;;;;5.00;2.83;;;;;;;16.83;92.77;101543.53;5044306;28;20450;-84
2021/09/13 09:23:05;;;;;;;5.25;2.53;;;;;;;17.06;92.56;101540.72;5059629;28;20044;-82
2021/09/13 09:25:35;;;;;;;3.40;1.80;;;;;;;17.01;90.67;101543.16;5025633;28;20058;-80
2021/09/13 09:28:06;;;;;;;4.70;2.05;;;;;;;17.02;91.73;101549.41;5061689;28;20099;-81
2021/09/13 09:30:37;;;;;;;5.68;2.53;;;;;;;17.03;90.98;101551.06;5042903;28;20474;-83
2021/09/13 09:33:13;;;;;;;3.90;1.85;;;;;;;17.02;90.61;101544.81;5040616;28;20404;-82
2021/09/13 09:35:47;;;;;;;4.25;1.98;;;;;;;17.09;91.64;101550.31;5058560;28;20052;-83
2021/09/13 09:38:39;;;;;;;3.67;1.60;;;;;;;17.22;90.57;101546.94;5059311;28;20132;-83
2021/09/13 09:41:16;;;;;;;4.57;1.83;;;;;;;17.34;92.03;101548.97;5028010;28;20037;-83
2021/09/13 09:43:48;;;;;;;5.13;2.42;;;;;;;17.42;90.56;101547.19;5060691;28;20041;-82
2021/09/13 09:46:13;;;;;;;3.80;2.30;;;;;;;17.47;90.86;101539.31;5059130;28;20055;-82
2021/09/13 09:48:39;;;;;;;8.25;2.80;;;;;;;17.54;91.27;101542.94;5038839;28;20052;-82
2021/09/13 09:51:27;;;;;;;4.95;1.75;;;;;;;17.50;89.78;101547.06;5062293;28;20063;-85
2021/09/13 09:53:53;;;;;;;3.47;1.60;;;;;;;17.51;90.52;101548.75;4992163;28;20653;-83
2021/09/13 09:56:18;;;;;;;6.07;2.45;;;;;;;17.53;92.04;101549.41;5040534;28;20123;-82
2021/09/13 09:59:19;;;;;;;5.35;2.58;;;;;;;17.61;93.06;101546.56;5056998;28;20052;-83
2021/09/13 10:01:46;;;;;;;5.55;2.65;;;;;;;17.58;93.33;101546.97;5000444;28;20105;-83
2021/09/13 10:04:23;;;;;;;5.55;1.90;;;;;;;17.62;93.75;101539.28;5061086;28;20040;-84
2021/09/13 10:06:58;;;;;;;7.72;2.47;;;;;;;17.53;93.14;101539.38;5039195;28;20040;-81
2021/09/13 10:09:26;;;;;;;8.20;2.53;;;;;;;17.57;93.69;101531.69;5060121;28;20431;-80
2021/09/13 10:11:55;;;;;;;6.25;2.13;;;;;;;17.56;93.27;101530.84;5027384;28;20127;-82
2021/09/13 10:14:24;;;;;;;5.95;1.95;;;;;;;17.55;93.40;101531.03;5039828;28;20152;-83
2021/09/13 10:16:50;;;;;;;10.95;2.47;;;;;;;17.59;94.20;101521.50;5059029;28;20098;-82
2021/09/13 10:19:17;;;;;;;5.05;2.20;;;;;;;17.68;94.36;101523.03;5060346;28;20676;-84
2021/09/13 10:21:43;;;;;;;6.20;1.98;;;;;;;17.74;94.25;101511.41;5025440;28;20485;-81
2021/09/13 10:24:19;;;;;;;5.82;2.03;;;;;;;17.71;93.12;101517.22;5047869;28;20048;-83
2021/09/13 10:26:47;;;;;;;4.82;1.90;;;;;;;17.79;93.75;101519.00;5059326;28;20406;-85
2021/09/13 10:29:13;;;;;;;6.60;2.45;;;;;;;17.84;93.08;101521.13;5041242;28;20110;-85
2021/09/13 10:31:41;;;;;;;6.75;2.22;;;;;;;17.77;92.78;101512.91;5060166;28;20431;-82
2021/09/13 10:34:25;;;;;;;5.53;2.20;;;;;;;17.71;92.75;101517.22;5042030;28;20117;-84
2021/09/13 10:36:59;;;;;;;6.38;2.55;;;;;;;17.69;93.07;101518.44;5056655;28;20052;-83
2021/09/13 10:39:49;;;;;;;4.60;1.95;;;;;;;17.78;92.88;101514.59;5058663;28;20119;-80
2021/09/13 10:42:43;;;;;;;5.35;1.60;;;;;;;17.92;92.35;101512.84;5059731;28;20430;-83
2021/09/13 10:45:27;;;;;;;3.55;1.42;;;;;;;18.03;93.22;101510.44;5040796;28;20047;-82
2021/09/13 10:47:58;;;;;;;6.38;1.60;;;;;;;18.04;91.67;101508.59;5042112;28;20056;-82
2021/09/13 10:50:41;;;;;;;6.07;1.70;;;;;;;18.04;91.79;101512.16;5057566;28;20094;-83
2021/09/13 10:53:18;;;;;;;6.70;2.00;;;;;;;18.18;92.41;101510.38;5058099;28;20547;-82
2021/09/13 10:55:46;;;;;;;3.53;1.30;;;;;;;18.29;90.65;101516.28;5053906;28;20040;-82
2021/09/13 10:58:34;;;;;;;6.18;1.88;;;;;;;18.30;89.86;101513.41;5041430;28;20040;-86
2021/09/13 11:01:06;;;;;;;5.82;1.85;;;;;;;18.23;89.56;101505.19;5041392;28;20028;-84
2021/09/13 11:03:36;;;;;;;5.97;1.90;;;;;;;18.17;92.13;101505.97;5058373;28;20396;-85
2021/09/13 11:06:12;;;;;;;7.05;2.00;;;;;;;18.31;92.52;101500.66;5039548;28;20127;-83
2021/09/13 11:08:41;;;;;;;5.63;2.20;;;;;;;18.38;91.92;101498.78;5055442;28;20075;-83
2021/09/13 11:11:26;;;;;;;;;;;;;;;18.48;91.17;101496.56;5046828;28;20056;-82
2021/09/13 11:13:58;;;;;;;5.55;2.40;;;;;;;18.40;91.25;101504.88;5024468;28;19934;-82
2021/09/13 11:16:25;;;;;;;4.47;1.90;;;;;;;18.49;90.68;101503.69;5042858;28;20048;-81
2021/09/13 11:18:50;;;;;;;6.15;1.60;;;;;;;18.60;90.70;101508.56;5038980;28;20054;-81
2021/09/13 11:21:26;;;;;;;4.53;1.95;;;;;;;18.77;89.87;101508.28;5060803;28;20040;-84
2021/09/13 11:23:58;;;;;;;3.08;1.40;;;;;;;18.84;88.92;101490.09;5021351;28;20404;-83